Phoenix, AZ

2:29 PM MST on August 23, 2016 (GMT -0700)
Willo Historic District | | Change Station

Elev 1086 ft 33.47 °N, 112.08 °W | Updated 24 seconds ago

Mostly Cloudy
Mostly Cloudy
94.8 °F
Feels Like 94 °F
N
2.5
Wind Variable Wind from NNE
Gusts 4.9 mph

Today
High -- | Low -- °F
--% Chance of Precip.
Yesterday
High -- | Low -- °F
Precip. -- in
Pressure 29.91 in
Visibility 10.0 miles
Clouds Few 7000 ft
Scattered Clouds 13000 ft
Mostly Cloudy 16000 ft
Heat Index 94 °F
Dew Point 59 °F
Humidity 30%
Rainfall 0.13 in
Snow Depth Not available.
5:56 AM 7:04 PM
Waning Gibbous, 64% visible
METAR KPHX 232051Z VRB06KT 10SM FEW070 SCT130 BKN160 33/15 A2996 RMK AO2 SLP126 T03330150 58014
Pressure 29.91 in
Visibility 10.0 miles
Clouds Few 7000 ft
Scattered Clouds 13000 ft
Mostly Cloudy 16000 ft
Heat Index 94 °F
Dew Point 59 °F
Humidity 30%
Rainfall 0.13 in
Snow Depth Not available.
5:56 AM 7:04 PM
Waning Gibbous, 64% visible
METAR KPHX 232051Z VRB06KT 10SM FEW070 SCT130 BKN160 33/15 A2996 RMK AO2 SLP126 T03330150 58014

10-Day Weather Forecast

Almanac

Astronomy

Aug. 23, 2016 Rise Set
Actual Time
Civil Twilight
Nautical Twilight
Astronomical Twilight
Moon
Length of Visible Light
Length of Day
Tomorrow will be .
, % of the Moon is Illuminated

Today's Extremes

State Highs State Lows

Community

WunderPhotos

Upload Photos

1,934,464 photos uploaded!

WunderBlog® & News

Nearby

Air Quality

  Air Quality AQ Index Pollutant
Not available.

Snow Depth

Station Depth Elevation

Earthquake Activity

City Distance Mag. Time & Date
Minimum magnitude displayed is 2.5.

Coastal Water Temperatures

Place Temperature

Stations

Nearby Weather Stations

Station Location Temp. Windchill Dew Point Humidity Wind Precip. Elev Updated Type
                   

Watches & Warnings

There are currently no watches in effect.